Tempiute, Nevada
Current Conditions -  °F | °C
As of 7:58 PM on Saturday 25 Oct 2014 (Local Time) from KINS Reporting Station
Clear Clear  
Wind Chill: 74°   Ceiling: Unl
Heat Index: 74°   Visibility: 10mi
Dew Point: 36°   Wind: 9mph
Humidity: 25%   Direction: 290°WNW
Pressure: 29.95"   Gusts: NA
Location:  37.3772°N, 115.475°W
Report Text: KINS 260258Z AUTO 29008KT 10SM CLR 24/02 A2995 RMK AO2 SLP111 T02350021 53001 $
Loading
Personal Weather Stations






























Interactive Weather Map
Tropical Storm Tracking
New forecast layout! Learn more

10-Day Weather Forecast

Advertisements
Track Severe Weather on mobile